Boca Raton, FL (33487)

6:42 PM EST on February 09, 2016 (GMT -0500)
Bel Lido | | Change Station
CLOSE
Current Station
Personal Weather Station
Location: Highland Beach, FL
Elevation: 10 ft
Nearby Weather Stations

Elev 10 ft 26.40 °N, 80.07 °W | Updated 15 seconds ago

Partly Cloudy
Partly Cloudy
62.1 °F
Feels Like 62.1 °F
N
9.2
Wind Variable Wind from WSW
Gusts 9.2 mph

Today
High -- | Low -- °F
--% Chance of Precip.
Yesterday
High -- | Low -- °F
Precip. -- in
Pressure 30.04 in
Visibility 10.0 miles
Clouds Clear
Dew Point 37 °F
Humidity 39%
Rainfall 0.00 in
Snow Depth Not available.
7:00 AM 6:08 PM
Waxing Crescent, 3% visible
METAR KPMP 092253Z 27016G20KT 10SM CLR 18/08 A3003 RMK AO2 SLP171 T01780078
Pressure 30.04 in
Visibility 10.0 miles
Clouds Clear
Dew Point 37 °F
Humidity 39%
Rainfall 0.00 in
Snow Depth Not available.
7:00 AM 6:08 PM
Waxing Crescent, 3% visible
METAR KPMP 092253Z 27016G20KT 10SM CLR 18/08 A3003 RMK AO2 SLP171 T01780078

10-Day Weather Forecast

Almanac

Astronomy

Feb. 09, 2016 Rise Set
Actual Time
Civil Twilight
Nautical Twilight
Astronomical Twilight
Moon
Length of Visible Light
Length of Day
Tomorrow will be .
, % of the Moon is Illuminated

Today's Extremes

State Highs State Lows

Community

WunderPhotos

Upload Photos

1,891,744 photos uploaded!

WunderBlog® & News

Nearby

Air Quality

  Air Quality AQ Index Pollutant
Not available.

Snow Depth

Station Depth Elevation

Earthquake Activity

City Distance Mag. Time & Date
Minimum magnitude displayed is 2.5.

Coastal Water Temperatures

Place Temperature

Stations

Nearby Weather Stations

Station Location Temp. Windchill Dew Point Humidity Wind Precip. Elev Updated Type
                   

Watches & Warnings

There are currently no watches in effect.